createdAt,value
2019-05-05T00:01:36.163Z,98.60
2019-05-05T00:04:21.416Z,98.60
2019-05-05T00:06:50.286Z,98.70
2019-05-05T00:09:19.095Z,98.70
2019-05-05T00:12:06.047Z,98.70
2019-05-05T00:14:48.327Z,98.80
2019-05-05T00:17:18.763Z,98.80
2019-05-05T00:19:47.641Z,98.80
2019-05-05T00:22:16.558Z,98.80
2019-05-05T00:24:45.423Z,98.70
2019-05-05T00:27:14.961Z,98.80
2019-05-05T00:29:45.317Z,98.80
2019-05-05T00:32:15.279Z,98.80
2019-05-05T00:34:44.637Z,98.90
2019-05-05T00:37:15.144Z,98.90
2019-05-05T00:39:45.175Z,98.90
2019-05-05T00:42:15.431Z,98.90
2019-05-05T00:44:44.753Z,99.00
2019-05-05T00:47:15.481Z,98.90
2019-05-05T00:49:49.082Z,99.00
2019-05-05T00:52:16.919Z,99.00
2019-05-05T00:54:46.695Z,99.00
2019-05-05T00:57:15.514Z,99.00
2019-05-05T00:59:45.196Z,99.00
2019-05-05T01:02:25.080Z,99.10
2019-05-05T01:05:04.763Z,99.00
2019-05-05T01:07:35.075Z,99.00
2019-05-05T01:10:06.256Z,99.10
2019-05-05T01:12:35.124Z,99.10
2019-05-05T01:15:04.775Z,99.10
2019-05-05T01:17:34.544Z,99.10
2019-05-05T01:20:06.984Z,99.10
2019-05-05T01:22:36.111Z,99.10
2019-05-05T01:25:08.996Z,99.10
2019-05-05T01:27:37.858Z,99.20
2019-05-05T01:30:09.719Z,99.20
2019-05-05T01:32:44.599Z,99.10
2019-05-05T01:35:14.423Z,99.10
2019-05-05T01:37:54.798Z,99.20
2019-05-05T01:40:25.399Z,99.20
2019-05-05T01:42:54.730Z,99.20
2019-05-05T01:45:24.266Z,99.20
2019-05-05T01:47:54.530Z,99.20
2019-05-05T01:50:24.875Z,99.20
2019-05-05T01:52:55.564Z,99.30
2019-05-05T01:55:25.410Z,99.20
2019-05-05T01:57:54.683Z,99.20
2019-05-05T02:00:25.392Z,99.30
2019-05-05T02:02:55.388Z,99.30
2019-05-05T02:05:24.388Z,99.60
2019-05-05T02:07:55.167Z,99.30
2019-05-05T02:10:25.389Z,99.30
2019-05-05T02:12:55.116Z,99.30
2019-05-05T02:15:25.060Z,99.30
2019-05-05T02:17:55.050Z,99.30
2019-05-05T02:20:45.051Z,99.30
2019-05-05T02:23:15.484Z,99.30
2019-05-05T02:25:44.747Z,99.30
2019-05-05T02:28:14.976Z,99.30
2019-05-05T02:30:48.644Z,99.40
2019-05-05T02:33:19.043Z,99.40
2019-05-05T02:35:47.912Z,99.30
2019-05-05T02:38:17.942Z,99.30
2019-05-05T02:40:48.599Z,99.40
2019-05-05T02:43:19.328Z,99.30
2019-05-05T02:45:55.216Z,99.40
2019-05-05T02:48:25.109Z,99.30
2019-05-05T02:51:01.767Z,99.30
2019-05-05T02:53:29.735Z,99.40
2019-05-05T02:56:04.159Z,99.40
2019-05-05T02:58:35.369Z,99.40
2019-05-05T03:01:05.999Z,99.40
2019-05-05T03:03:37.799Z,99.40
2019-05-05T03:06:06.723Z,99.40
2019-05-05T03:08:37.295Z,99.40
2019-05-05T03:11:06.919Z,99.50
2019-05-05T03:13:37.086Z,99.40
2019-05-05T03:16:20.641Z,99.50
2019-05-05T03:18:50.304Z,99.50
2019-05-05T03:21:20.827Z,99.50
2019-05-05T03:23:50.194Z,99.50
2019-05-05T03:26:19.914Z,99.50
2019-05-05T03:28:59.919Z,99.50
2019-05-05T03:31:29.139Z,99.60
2019-05-05T03:33:58.696Z,99.60
2019-05-05T03:36:28.215Z,99.50
2019-05-05T03:38:57.387Z,99.60
2019-05-05T03:41:28.783Z,99.60
2019-05-05T03:44:14.391Z,99.60
2019-05-05T03:46:43.906Z,99.70
2019-05-05T03:49:14.003Z,99.70
2019-05-05T03:51:43.953Z,99.60
2019-05-05T03:54:14.671Z,99.60
2019-05-05T03:56:44.268Z,99.70
2019-05-05T03:59:14.077Z,99.80
2019-05-05T04:01:56.951Z,99.80
2019-05-05T04:04:27.387Z,99.80
2019-05-05T04:06:57.546Z,99.80
2019-05-05T04:09:26.878Z,99.80
2019-05-05T04:11:55.734Z,99.80
2019-05-05T04:14:25.092Z,99.80
2019-05-05T04:17:07.964Z,99.80
2019-05-05T04:19:54.575Z,99.80
2019-05-05T04:22:23.819Z,99.90
2019-05-05T04:24:54.090Z,99.80
2019-05-05T04:27:23.931Z,99.80
2019-05-05T04:29:54.466Z,99.80
2019-05-05T04:32:24.458Z,99.80
2019-05-05T04:34:54.318Z,99.80
2019-05-05T04:37:23.921Z,99.80
2019-05-05T04:39:53.737Z,99.80
2019-05-05T04:42:24.530Z,99.80
2019-05-05T04:44:53.808Z,99.90
2019-05-05T04:47:24.439Z,99.90
2019-05-05T04:49:54.834Z,99.90
2019-05-05T04:52:30.849Z,99.90
2019-05-05T04:54:59.668Z,99.90
2019-05-05T04:57:28.544Z,99.90
2019-05-05T04:59:57.359Z,99.90
2019-05-05T05:02:30.783Z,99.90
2019-05-05T05:05:01.175Z,99.90
2019-05-05T05:07:30.039Z,99.90
2019-05-05T05:09:58.867Z,99.80
2019-05-05T05:12:27.731Z,99.80
2019-05-05T05:14:56.560Z,99.80
2019-05-05T05:17:29.420Z,99.80
2019-05-05T05:19:58.289Z,99.80
2019-05-05T05:22:27.111Z,99.80
2019-05-05T05:24:55.981Z,99.80
2019-05-05T05:27:24.803Z,99.80
2019-05-05T05:29:54.412Z,99.80
2019-05-05T05:32:24.724Z,99.80
2019-05-05T05:34:54.266Z,99.80
2019-05-05T05:37:24.004Z,99.80
2019-05-05T05:39:57.067Z,99.80
2019-05-05T05:42:25.890Z,99.80
2019-05-05T05:45:05.316Z,99.80
2019-05-05T05:47:53.642Z,99.70
2019-05-05T05:50:24.575Z,99.60
2019-05-05T05:52:54.091Z,99.50
2019-05-05T05:55:23.786Z,99.50
2019-05-05T05:57:54.151Z,99.50
2019-05-05T06:00:23.724Z,99.50
2019-05-05T06:02:54.579Z,99.40
2019-05-05T06:05:23.886Z,99.30
2019-05-05T06:07:54.488Z,99.20
2019-05-05T06:10:26.683Z,99.20
2019-05-05T06:12:54.686Z,99.10
2019-05-05T06:15:24.442Z,99.00
2019-05-05T06:17:53.930Z,98.90
2019-05-05T06:20:23.835Z,98.80
2019-05-05T06:22:53.573Z,98.80
2019-05-05T06:25:26.303Z,98.70
2019-05-05T06:27:54.004Z,98.90
2019-05-05T06:30:24.395Z,98.60
2019-05-05T06:32:54.379Z,98.50
2019-05-05T06:35:24.459Z,98.40
2019-05-05T06:37:54.389Z,98.30
2019-05-05T06:40:30.849Z,98.20
2019-05-05T06:43:17.535Z,98.10
2019-05-05T06:46:06.043Z,98.00
2019-05-05T06:48:34.908Z,97.90
2019-05-05T06:51:04.103Z,97.80
2019-05-05T06:53:34.165Z,97.70
2019-05-05T06:56:04.086Z,97.60
2019-05-05T06:58:34.723Z,97.60
2019-05-05T07:01:03.771Z,97.50
2019-05-05T07:03:33.646Z,97.40
2019-05-05T07:06:04.351Z,97.30
2019-05-05T07:08:34.714Z,97.10
2019-05-05T07:11:04.189Z,96.90
2019-05-05T07:13:33.960Z,97.10
2019-05-05T07:16:04.891Z,96.60
2019-05-05T07:18:34.074Z,96.90
2019-05-05T07:21:03.687Z,96.40
2019-05-05T07:23:34.104Z,96.40
2019-05-05T07:26:04.186Z,96.30
2019-05-05T07:28:34.195Z,96.30
2019-05-05T07:31:04.404Z,96.30
2019-05-05T07:33:34.617Z,96.20
2019-05-05T07:36:06.106Z,96.20
2019-05-05T07:38:35.163Z,96.20
2019-05-05T07:41:03.984Z,96.50
2019-05-05T07:43:34.470Z,96.30
2019-05-05T07:46:04.424Z,95.90
2019-05-05T07:48:33.653Z,95.80
2019-05-05T07:51:05.327Z,95.60
2019-05-05T07:53:33.605Z,95.50
2019-05-05T07:56:03.926Z,95.50
2019-05-05T07:58:34.511Z,95.20
2019-05-05T08:01:04.595Z,95.20
2019-05-05T08:03:33.977Z,95.10
2019-05-05T08:06:03.935Z,95.10
2019-05-05T08:08:33.561Z,95.00
2019-05-05T08:11:04.638Z,94.80
2019-05-05T08:13:33.649Z,95.00
2019-05-05T08:16:04.535Z,94.80
2019-05-05T08:18:51.172Z,94.70
2019-05-05T08:21:35.914Z,94.60
2019-05-05T08:24:13.943Z,94.60
2019-05-05T08:26:44.593Z,94.60
2019-05-05T08:29:30.564Z,94.70
2019-05-05T08:32:13.608Z,94.60
2019-05-05T08:34:56.630Z,94.70
2019-05-05T08:37:14.618Z,94.60
2019-05-05T08:39:44.682Z,94.50
2019-05-05T08:42:14.436Z,94.50
2019-05-05T08:44:44.732Z,94.10
2019-05-05T08:47:13.968Z,94.60
2019-05-05T08:49:44.244Z,94.10
2019-05-05T08:52:14.550Z,94.00
2019-05-05T08:54:44.634Z,93.90
2019-05-05T08:57:14.665Z,93.70
2019-05-05T08:59:43.980Z,93.60
2019-05-05T09:02:14.897Z,93.60
2019-05-05T09:04:44.666Z,93.50
2019-05-05T09:07:13.896Z,93.50
2019-05-05T09:09:44.178Z,93.30
2019-05-05T09:12:13.926Z,93.20
2019-05-05T09:14:44.913Z,93.10
2019-05-05T09:17:13.797Z,93.00
2019-05-05T09:19:44.698Z,92.70
2019-05-05T09:22:13.992Z,92.70
2019-05-05T09:24:56.872Z,92.90
2019-05-05T09:27:36.195Z,92.40
2019-05-05T09:30:07.500Z,92.10
2019-05-05T09:32:36.369Z,91.80
2019-05-05T09:35:06.688Z,91.50
2019-05-05T09:37:35.567Z,91.20
2019-05-05T09:40:05.808Z,91.20
2019-05-05T09:42:34.624Z,91.10
2019-05-05T09:45:04.899Z,90.80
2019-05-05T09:47:34.395Z,90.60
2019-05-05T09:50:04.271Z,90.40
2019-05-05T09:52:33.768Z,90.10
2019-05-05T09:55:03.898Z,90.10
2019-05-05T09:57:34.386Z,90.10
2019-05-05T10:00:09.926Z,90.00
2019-05-05T10:02:38.755Z,89.70
2019-05-05T10:05:08.676Z,89.20
2019-05-05T10:07:37.543Z,89.00
2019-05-05T10:10:07.468Z,88.70
2019-05-05T10:12:36.327Z,88.70
2019-05-05T10:15:07.745Z,88.70
2019-05-05T10:17:36.718Z,88.70
2019-05-05T10:20:07.046Z,89.10
2019-05-05T10:22:35.912Z,89.00
2019-05-05T10:25:24.587Z,88.60
2019-05-05T10:27:54.008Z,88.10
2019-05-05T10:30:23.841Z,87.80
2019-05-05T10:32:54.575Z,87.60
2019-05-05T10:35:23.840Z,87.40
2019-05-05T10:37:54.450Z,87.10
2019-05-05T10:40:24.767Z,87.30
2019-05-05T10:42:54.077Z,87.20
2019-05-05T10:45:24.675Z,87.60
2019-05-05T10:47:53.926Z,87.10
2019-05-05T10:50:24.690Z,86.50
2019-05-05T10:52:53.729Z,86.20
2019-05-05T10:55:23.902Z,86.30
2019-05-05T10:57:54.281Z,85.90
2019-05-05T11:00:44.517Z,85.70
2019-05-05T11:03:14.957Z,85.40
2019-05-05T11:05:45.068Z,85.30
2019-05-05T11:08:14.295Z,85.30
2019-05-05T11:10:44.899Z,85.00
2019-05-05T11:13:13.694Z,84.80
2019-05-05T11:15:44.360Z,84.50
2019-05-05T11:18:14.847Z,83.90
2019-05-05T11:20:44.739Z,83.10
2019-05-05T11:23:14.981Z,83.00
2019-05-05T11:25:44.547Z,83.20
2019-05-05T11:28:13.778Z,83.20
2019-05-05T11:30:45.765Z,83.10
2019-05-05T11:33:24.997Z,82.40
2019-05-05T11:36:01.466Z,81.80
2019-05-05T11:38:30.360Z,81.30
2019-05-05T11:40:59.256Z,80.80
2019-05-05T11:43:29.888Z,80.60
2019-05-05T11:45:58.877Z,80.50
2019-05-05T11:48:27.765Z,79.90
2019-05-05T11:50:56.628Z,77.90
2019-05-05T11:53:25.501Z,77.50
2019-05-05T11:55:56.007Z,75.80
2019-05-05T11:58:25.051Z,73.60
2019-05-05T12:00:54.665Z,71.80
2019-05-05T12:03:23.758Z,70.00
2019-05-05T12:05:52.590Z,69.50
2019-05-05T12:08:23.635Z,69.30
2019-05-05T12:10:54.259Z,67.40
2019-05-05T12:13:23.196Z,65.70
2019-05-05T12:15:53.879Z,64.80
2019-05-05T12:18:23.747Z,63.50
2019-05-05T12:20:54.375Z,61.30
2019-05-05T12:23:23.390Z,60.40
2019-05-05T12:25:56.983Z,59.50
2019-05-05T12:28:25.923Z,59.50
2019-05-05T12:30:57.467Z,59.10
2019-05-05T12:33:26.346Z,58.90
2019-05-05T12:35:55.176Z,58.60
2019-05-05T12:38:24.216Z,58.40
2019-05-05T12:40:53.640Z,58.70
2019-05-05T12:43:24.543Z,58.50
2019-05-05T12:46:00.364Z,57.50
2019-05-05T12:48:46.799Z,57.40
2019-05-05T12:51:15.667Z,57.80
2019-05-05T12:53:44.543Z,57.70
2019-05-05T12:56:14.555Z,58.50
2019-05-05T12:58:44.005Z,59.50
2019-05-05T13:01:14.574Z,61.80
2019-05-05T13:03:43.760Z,63.60
2019-05-05T13:06:14.550Z,64.60
2019-05-05T13:08:44.483Z,66.30
2019-05-05T13:11:13.599Z,66.60
2019-05-05T13:13:43.945Z,67.40
2019-05-05T13:16:13.676Z,68.40
2019-05-05T13:18:42.658Z,69.90
2019-05-05T13:21:13.095Z,70.20
2019-05-05T13:23:46.495Z,70.10
2019-05-05T13:26:20.562Z,71.50
2019-05-05T13:28:49.414Z,71.00
2019-05-05T13:31:18.241Z,70.50
2019-05-05T13:33:47.108Z,70.00
2019-05-05T13:36:15.967Z,69.30
2019-05-05T13:38:44.789Z,68.70
2019-05-05T13:41:13.663Z,68.60
2019-05-05T13:43:42.519Z,68.20
2019-05-05T13:46:13.991Z,67.10
2019-05-05T13:48:44.358Z,66.80
2019-05-05T13:51:14.936Z,66.50
2019-05-05T13:53:44.808Z,66.30
2019-05-05T13:56:15.390Z,66.50
2019-05-05T13:58:44.399Z,67.20
2019-05-05T14:01:14.482Z,67.50
2019-05-05T14:03:44.750Z,67.30
2019-05-05T14:06:13.954Z,67.60
2019-05-05T14:08:44.810Z,67.70
2019-05-05T14:11:14.217Z,67.50
2019-05-05T14:13:45.472Z,67.70
2019-05-05T14:16:14.332Z,67.40
2019-05-05T14:18:43.437Z,67.50
2019-05-05T14:21:13.933Z,67.50
2019-05-05T14:24:03.823Z,67.50
2019-05-05T14:26:35.166Z,67.60
2019-05-05T14:29:04.306Z,67.50
2019-05-05T14:31:34.966Z,67.60
2019-05-05T14:34:05.607Z,67.50
2019-05-05T14:36:36.008Z,67.40
2019-05-05T14:39:08.750Z,67.30
2019-05-05T14:41:37.614Z,67.90
2019-05-05T14:44:06.453Z,68.30
2019-05-05T14:46:35.310Z,68.90
2019-05-05T14:49:05.679Z,69.10
2019-05-05T14:51:34.807Z,69.20
2019-05-05T14:54:04.602Z,69.30
2019-05-05T14:56:36.445Z,69.50
2019-05-05T14:59:04.186Z,69.50
2019-05-05T15:01:34.425Z,69.50
2019-05-05T15:04:04.309Z,69.30
2019-05-05T15:06:34.916Z,69.00
2019-05-05T15:09:06.821Z,68.40
2019-05-05T15:11:53.941Z,68.50
2019-05-05T15:14:24.373Z,67.60
2019-05-05T15:16:54.341Z,67.50
2019-05-05T15:19:23.833Z,66.80
2019-05-05T15:21:53.604Z,66.10
2019-05-05T15:24:24.459Z,65.70
2019-05-05T15:26:55.044Z,64.30
2019-05-05T15:29:25.170Z,64.20
2019-05-05T15:31:54.326Z,64.20
2019-05-05T15:34:24.049Z,64.70
2019-05-05T15:36:59.509Z,64.60
2019-05-05T15:39:28.347Z,64.60
2019-05-05T15:41:57.179Z,64.00
2019-05-05T15:44:26.038Z,63.40
2019-05-05T15:46:57.773Z,63.10
2019-05-05T15:49:25.376Z,62.70
2019-05-05T15:51:54.240Z,62.10
2019-05-05T15:54:23.601Z,61.30
2019-05-05T15:57:04.971Z,60.80
2019-05-05T15:59:23.957Z,60.90
2019-05-05T16:01:54.721Z,61.20
2019-05-05T16:04:23.702Z,60.20
2019-05-05T16:06:54.110Z,59.80
2019-05-05T16:09:23.176Z,59.70
2019-05-05T16:11:51.989Z,59.60
2019-05-05T16:14:23.708Z,59.90
2019-05-05T16:16:55.610Z,60.70
2019-05-05T16:19:28.639Z,61.20
2019-05-05T16:22:01.324Z,61.70
2019-05-05T16:24:33.605Z,62.00
2019-05-05T16:27:05.400Z,62.50
2019-05-05T16:29:33.665Z,63.00
2019-05-05T16:32:05.451Z,63.00
2019-05-05T16:34:33.692Z,63.50
2019-05-05T16:37:03.844Z,63.70
2019-05-05T16:39:33.588Z,63.70
2019-05-05T16:42:02.626Z,63.40
2019-05-05T16:44:31.452Z,63.30
2019-05-05T16:47:00.324Z,64.30
2019-05-05T16:49:29.183Z,64.00
2019-05-05T16:52:00.893Z,64.60
2019-05-05T16:54:33.638Z,65.00
2019-05-05T16:57:05.495Z,64.90
2019-05-05T16:59:34.111Z,64.50
2019-05-05T17:02:04.776Z,64.50
2019-05-05T17:04:35.522Z,64.70
2019-05-05T17:07:04.121Z,65.30
2019-05-05T17:09:34.423Z,66.10
2019-05-05T17:12:05.028Z,66.50
2019-05-05T17:14:35.465Z,66.70
2019-05-05T17:17:20.979Z,67.20
2019-05-05T17:19:51.416Z,68.10
2019-05-05T17:22:30.814Z,68.60
2019-05-05T17:25:00.778Z,69.30
2019-05-05T17:27:29.639Z,70.00
2019-05-05T17:29:58.464Z,70.70
2019-05-05T17:32:27.333Z,71.20
2019-05-05T17:34:56.195Z,71.80
2019-05-05T17:37:25.023Z,72.30
2019-05-05T17:40:01.481Z,72.80
2019-05-05T17:42:47.049Z,72.80
2019-05-05T17:45:20.547Z,73.20
2019-05-05T17:48:23.737Z,73.80
2019-05-05T17:50:54.391Z,74.30
2019-05-05T17:53:28.181Z,75.00
2019-05-05T17:55:58.711Z,76.50
2019-05-05T17:58:29.430Z,76.30
2019-05-05T18:01:03.805Z,77.20
2019-05-05T18:03:34.101Z,77.90
2019-05-05T18:06:14.389Z,78.50
2019-05-05T18:08:48.459Z,79.30
2019-05-05T18:11:27.899Z,79.60
2019-05-05T18:14:01.602Z,79.80
2019-05-05T18:16:31.007Z,80.30
2019-05-05T18:19:00.103Z,80.60
2019-05-05T18:21:32.140Z,81.10
2019-05-05T18:23:59.730Z,81.30
2019-05-05T18:26:28.589Z,81.80
2019-05-05T18:28:57.511Z,81.80
2019-05-05T18:31:26.402Z,81.90
2019-05-05T18:33:55.292Z,82.20
2019-05-05T18:36:24.388Z,82.30
2019-05-05T18:38:53.889Z,82.50
2019-05-05T18:41:24.628Z,82.90
2019-05-05T18:43:55.367Z,83.20
2019-05-05T18:47:18.474Z,83.10
2019-05-05T18:50:04.499Z,83.20
2019-05-05T18:52:34.667Z,83.30
2019-05-05T18:55:08.019Z,83.10
2019-05-05T18:57:36.903Z,83.30
2019-05-05T19:00:08.344Z,83.80
2019-05-05T19:02:39.010Z,84.40
2019-05-05T19:05:26.845Z,84.90
2019-05-05T19:07:57.376Z,84.90
2019-05-05T19:10:28.140Z,85.40
2019-05-05T19:12:56.795Z,85.50
2019-05-05T19:15:25.687Z,85.90
2019-05-05T19:17:54.580Z,86.30
2019-05-05T19:20:27.577Z,86.80
2019-05-05T19:23:05.586Z,87.10
2019-05-05T19:25:35.522Z,87.40
2019-05-05T19:28:04.692Z,87.80
2019-05-05T19:30:36.024Z,88.00
2019-05-05T19:33:04.583Z,88.50
2019-05-05T19:35:43.553Z,88.70
2019-05-05T19:38:04.906Z,89.10
2019-05-05T19:40:34.121Z,89.40
2019-05-05T19:43:04.775Z,89.80
2019-05-05T19:45:34.427Z,89.90
2019-05-05T19:48:05.575Z,90.00
2019-05-05T19:50:41.401Z,90.20
2019-05-05T19:53:24.538Z,90.30
2019-05-05T19:55:54.923Z,90.30
2019-05-05T19:58:24.137Z,90.30
2019-05-05T20:00:54.813Z,90.30
2019-05-05T20:03:24.168Z,90.50
2019-05-05T20:05:54.066Z,90.50
2019-05-05T20:08:23.950Z,90.70
2019-05-05T20:10:54.209Z,90.80
2019-05-05T20:13:25.336Z,90.90
2019-05-05T20:16:08.076Z,90.90
2019-05-05T20:18:36.967Z,90.90
2019-05-05T20:21:07.313Z,91.00
2019-05-05T20:23:36.490Z,91.10
2019-05-05T20:26:08.619Z,91.30
2019-05-05T20:28:37.549Z,91.40
2019-05-05T20:31:06.441Z,91.50
2019-05-05T20:33:54.301Z,91.60
2019-05-05T20:36:24.709Z,91.80
2019-05-05T20:38:55.234Z,91.90
2019-05-05T20:41:25.002Z,91.80
2019-05-05T20:43:54.391Z,91.80
2019-05-05T20:46:23.819Z,92.10
2019-05-05T20:48:54.457Z,92.20
2019-05-05T20:51:24.577Z,92.20
2019-05-05T20:53:54.203Z,92.30
2019-05-05T20:56:23.410Z,92.70
2019-05-05T20:58:52.301Z,92.30
2019-05-05T21:01:21.193Z,92.30
2019-05-05T21:03:50.089Z,92.30
2019-05-05T21:06:18.975Z,92.30
2019-05-05T21:08:48.072Z,92.40
2019-05-05T21:11:16.968Z,92.40
2019-05-05T21:13:45.852Z,92.50
2019-05-05T21:16:14.849Z,92.50
2019-05-05T21:18:43.744Z,92.50
2019-05-05T21:21:14.269Z,92.50
2019-05-05T21:23:44.796Z,92.60
2019-05-05T21:26:27.594Z,92.60
2019-05-05T21:28:56.607Z,92.60
2019-05-05T21:31:25.473Z,92.60
2019-05-05T21:33:54.868Z,92.60
2019-05-05T21:36:24.364Z,92.60
2019-05-05T21:38:54.863Z,92.70
2019-05-05T21:41:24.486Z,92.80
2019-05-05T21:43:54.114Z,92.80
2019-05-05T21:47:09.125Z,92.80
2019-05-05T21:49:38.017Z,92.80
2019-05-05T21:52:11.415Z,92.80
2019-05-05T21:54:43.781Z,92.80
2019-05-05T21:57:24.453Z,92.80
2019-05-05T21:59:58.398Z,92.90
2019-05-05T22:02:24.238Z,93.10
2019-05-05T22:04:54.315Z,93.00
2019-05-05T22:07:24.094Z,93.10
2019-05-05T22:09:54.470Z,93.10
2019-05-05T22:12:24.276Z,93.10
2019-05-05T22:14:55.003Z,93.10
2019-05-05T22:17:25.455Z,93.10
2019-05-05T22:20:04.081Z,93.20
2019-05-05T22:22:36.427Z,93.20
2019-05-05T22:25:06.518Z,93.20
2019-05-05T22:27:35.381Z,93.30
2019-05-05T22:30:10.350Z,93.40
2019-05-05T22:32:38.341Z,93.40
2019-05-05T22:35:07.564Z,93.50
2019-05-05T22:37:36.428Z,93.50
2019-05-05T22:40:05.858Z,93.60
2019-05-05T22:42:34.724Z,93.60
2019-05-05T22:45:04.598Z,93.60
2019-05-05T22:47:34.556Z,93.60
2019-05-05T22:50:04.419Z,93.70
2019-05-05T22:52:34.363Z,93.70
2019-05-05T22:55:04.559Z,93.70
2019-05-05T22:57:34.532Z,93.70
2019-05-05T23:00:05.329Z,93.80
2019-05-05T23:02:35.779Z,93.80
2019-05-05T23:05:11.052Z,93.90
2019-05-05T23:07:39.915Z,93.90
2019-05-05T23:10:09.588Z,94.00
2019-05-05T23:12:38.427Z,94.00
2019-05-05T23:15:08.594Z,94.10
2019-05-05T23:17:43.697Z,94.10
2019-05-05T23:20:16.345Z,94.50
2019-05-05T23:23:04.741Z,94.20
2019-05-05T23:25:34.749Z,94.10
2019-05-05T23:28:04.075Z,94.20
2019-05-05T23:30:41.102Z,94.20
2019-05-05T23:33:03.618Z,94.30
2019-05-05T23:35:34.314Z,94.30
2019-05-05T23:38:03.572Z,94.30
2019-05-05T23:40:33.952Z,94.30
2019-05-05T23:43:04.518Z,94.40
2019-05-05T23:45:34.074Z,94.40
2019-05-05T23:48:03.694Z,94.50
2019-05-05T23:50:33.831Z,94.40
2019-05-05T23:53:02.865Z,94.30
2019-05-05T23:55:31.728Z,94.40
2019-05-05T23:58:00.566Z,94.40
